createdAt,value
2023-03-06T00:00:54.641Z,3.29
2023-03-06T00:03:23.708Z,3.21
2023-03-06T00:05:51.214Z,3.06
2023-03-06T00:08:18.741Z,2.96
2023-03-06T00:10:46.822Z,2.88
2023-03-06T00:13:17.070Z,2.80
2023-03-06T00:15:45.125Z,2.74
2023-03-06T00:18:13.546Z,2.60
2023-03-06T00:20:42.699Z,2.58
2023-03-06T00:23:11.203Z,2.55
2023-03-06T00:25:42.926Z,2.50
2023-03-06T00:28:12.312Z,2.52
2023-03-06T00:30:40.441Z,2.42
2023-03-06T00:33:07.984Z,2.27
2023-03-06T00:35:35.570Z,2.19
2023-03-06T00:38:05.163Z,2.14
2023-03-06T00:40:33.365Z,2.08
2023-03-06T00:43:00.895Z,2.04
2023-03-06T00:45:28.778Z,1.91
2023-03-06T00:47:56.353Z,1.86
2023-03-06T00:50:25.014Z,1.86
2023-03-06T00:52:52.886Z,1.84
2023-03-06T00:55:20.939Z,1.82
2023-03-06T00:57:48.873Z,1.85
2023-03-06T01:00:17.288Z,1.86
2023-03-06T01:02:44.767Z,1.82
2023-03-06T01:05:13.656Z,1.73
2023-03-06T01:07:41.564Z,1.78
2023-03-06T01:10:10.088Z,1.86
2023-03-06T01:12:37.624Z,1.93
2023-03-06T01:15:06.876Z,2.03
2023-03-06T01:17:35.363Z,2.08
2023-03-06T01:20:04.792Z,2.07
2023-03-06T01:22:32.663Z,2.11
2023-03-06T01:25:00.113Z,2.03
2023-03-06T01:27:27.606Z,1.99
2023-03-06T01:29:55.513Z,2.03
2023-03-06T01:32:23.077Z,2.02
2023-03-06T01:34:50.725Z,1.92
2023-03-06T01:37:18.766Z,1.80
2023-03-06T01:39:46.280Z,1.68
2023-03-06T01:42:13.817Z,1.62
2023-03-06T01:45:01.593Z,1.55
2023-03-06T01:47:29.184Z,1.62
2023-03-06T01:50:00.756Z,1.66
2023-03-06T01:52:33.134Z,1.66
2023-03-06T01:55:07.658Z,1.62
2023-03-06T01:57:42.795Z,1.61
2023-03-06T02:00:17.441Z,1.60
2023-03-06T02:02:50.350Z,1.49
2023-03-06T02:05:17.994Z,1.35
2023-03-06T02:07:47.513Z,1.38
2023-03-06T02:10:16.300Z,1.37
2023-03-06T02:12:46.294Z,1.41
2023-03-06T02:15:17.420Z,1.38
2023-03-06T02:17:47.023Z,1.44
2023-03-06T02:20:29.293Z,1.46
2023-03-06T02:23:12.249Z,1.56
2023-03-06T02:25:50.620Z,1.65
2023-03-06T02:28:22.373Z,1.77
2023-03-06T02:30:52.120Z,1.82
2023-03-06T02:33:23.420Z,1.82
2023-03-06T02:35:54.971Z,1.74
2023-03-06T02:38:28.291Z,1.70
2023-03-06T02:40:58.158Z,1.73
2023-03-06T02:43:31.808Z,1.78
2023-03-06T02:45:59.370Z,1.81
2023-03-06T02:48:27.250Z,1.76
2023-03-06T02:50:54.717Z,1.78
2023-03-06T02:53:22.573Z,1.77
2023-03-06T02:55:50.847Z,1.83
2023-03-06T02:58:21.751Z,1.84
2023-03-06T03:00:49.802Z,1.89
2023-03-06T03:03:18.620Z,1.85
2023-03-06T03:05:46.535Z,1.86
2023-03-06T03:08:14.624Z,1.89
2023-03-06T03:10:43.151Z,1.84
2023-03-06T03:13:10.648Z,1.90
2023-03-06T03:15:38.873Z,1.90
2023-03-06T03:18:06.753Z,1.99
2023-03-06T03:20:34.266Z,2.07
2023-03-06T03:23:01.793Z,2.09
2023-03-06T03:25:29.651Z,1.99
2023-03-06T03:27:57.570Z,1.99
2023-03-06T03:30:25.838Z,1.98
2023-03-06T03:32:53.697Z,1.89
2023-03-06T03:35:21.291Z,1.89
2023-03-06T03:37:48.835Z,1.75
2023-03-06T03:40:17.016Z,1.83
2023-03-06T03:42:44.518Z,1.85
2023-03-06T03:45:13.151Z,1.87
2023-03-06T03:47:41.229Z,1.97
2023-03-06T03:50:10.119Z,1.98
2023-03-06T03:52:37.797Z,1.98
2023-03-06T03:55:06.211Z,1.83
2023-03-06T03:57:33.788Z,1.82
2023-03-06T04:00:01.816Z,1.93
2023-03-06T04:02:30.459Z,1.98
2023-03-06T04:04:59.040Z,1.98
2023-03-06T04:07:26.974Z,1.98
2023-03-06T04:09:54.795Z,2.02
2023-03-06T04:12:22.695Z,2.12
2023-03-06T04:14:50.354Z,2.16
2023-03-06T04:17:18.189Z,2.17
2023-03-06T04:19:46.072Z,2.12
2023-03-06T04:22:13.579Z,2.11
2023-03-06T04:24:41.247Z,2.06
2023-03-06T04:27:09.620Z,2.12
2023-03-06T04:29:37.197Z,2.15
2023-03-06T04:32:19.721Z,2.14
2023-03-06T04:34:49.274Z,2.20
2023-03-06T04:37:20.856Z,2.30
2023-03-06T04:39:49.085Z,2.39
2023-03-06T04:42:16.646Z,2.39
2023-03-06T04:44:44.627Z,2.37
2023-03-06T04:47:13.215Z,2.36
2023-03-06T04:49:40.751Z,2.34
2023-03-06T04:52:08.520Z,2.32
2023-03-06T04:54:36.343Z,2.31
2023-03-06T04:57:04.046Z,2.21
2023-03-06T04:59:31.576Z,2.24
2023-03-06T05:01:59.382Z,2.21
2023-03-06T05:04:26.827Z,2.23
2023-03-06T05:06:54.278Z,2.23
2023-03-06T05:09:22.156Z,2.32
2023-03-06T05:11:49.634Z,2.39
2023-03-06T05:14:17.211Z,2.45
2023-03-06T05:16:46.518Z,2.48
2023-03-06T05:19:14.126Z,2.50
2023-03-06T05:21:41.694Z,2.53
2023-03-06T05:24:09.873Z,2.58
2023-03-06T05:26:37.487Z,2.64
2023-03-06T05:29:04.967Z,2.68
2023-03-06T05:31:33.016Z,2.72
2023-03-06T05:34:00.769Z,2.73
2023-03-06T05:36:28.297Z,2.69
2023-03-06T05:38:56.075Z,2.64
2023-03-06T05:41:23.652Z,2.67
2023-03-06T05:43:53.109Z,2.72
2023-03-06T05:46:20.881Z,2.63
2023-03-06T05:48:48.509Z,2.73
2023-03-06T05:51:16.061Z,2.75
2023-03-06T05:53:43.870Z,2.78
2023-03-06T05:56:11.430Z,2.82
2023-03-06T05:58:39.403Z,2.84
2023-03-06T06:01:12.759Z,2.92
2023-03-06T06:03:40.905Z,2.92
2023-03-06T06:06:10.744Z,2.96
2023-03-06T06:08:38.571Z,2.95
2023-03-06T06:11:08.174Z,3.04
2023-03-06T06:13:36.550Z,3.04
2023-03-06T06:16:16.589Z,3.12
2023-03-06T06:18:44.546Z,3.12
2023-03-06T06:21:14.801Z,3.17
2023-03-06T06:23:43.190Z,3.28
2023-03-06T06:26:11.467Z,3.24
2023-03-06T06:28:39.059Z,3.27
2023-03-06T06:31:12.213Z,3.39
2023-03-06T06:33:41.215Z,3.47
2023-03-06T06:36:16.772Z,3.58
2023-03-06T06:38:44.884Z,3.67
2023-03-06T06:41:35.996Z,3.66
2023-03-06T06:44:01.070Z,3.75
2023-03-06T06:47:10.863Z,3.79
2023-03-06T06:49:17.384Z,3.96
2023-03-06T06:51:45.739Z,4.10
2023-03-06T06:54:13.357Z,4.23
2023-03-06T06:56:41.270Z,4.27
2023-03-06T06:59:16.729Z,4.45
2023-03-06T07:01:45.488Z,4.47
2023-03-06T07:04:13.803Z,4.55
2023-03-06T07:06:42.923Z,4.58
2023-03-06T07:09:13.185Z,4.61
2023-03-06T07:11:41.651Z,4.57
2023-03-06T07:14:09.239Z,4.48
2023-03-06T07:16:37.085Z,4.50
2023-03-06T07:19:04.727Z,4.41
2023-03-06T07:21:33.774Z,4.41
2023-03-06T07:24:01.678Z,4.43
2023-03-06T07:26:29.243Z,4.49
2023-03-06T07:28:56.736Z,4.48
2023-03-06T07:31:26.984Z,4.47
2023-03-06T07:33:55.470Z,4.47
2023-03-06T07:36:24.497Z,4.49
2023-03-06T07:38:52.335Z,4.41
2023-03-06T07:41:22.345Z,4.43
2023-03-06T07:43:50.469Z,4.38
2023-03-06T07:46:18.573Z,4.39
2023-03-06T07:48:46.058Z,4.43
2023-03-06T07:51:18.314Z,4.47
2023-03-06T07:53:46.889Z,4.48
2023-03-06T07:56:14.802Z,4.45
2023-03-06T07:58:47.386Z,4.45
2023-03-06T08:01:18.390Z,4.46
2023-03-06T08:03:47.368Z,4.48
2023-03-06T08:06:17.772Z,4.53
2023-03-06T08:08:47.359Z,4.65
2023-03-06T08:11:18.143Z,4.76
2023-03-06T08:13:46.860Z,4.88
2023-03-06T08:16:15.670Z,5.05
2023-03-06T08:18:45.842Z,5.11
2023-03-06T08:21:16.623Z,5.17
2023-03-06T08:23:44.900Z,5.26
2023-03-06T08:26:17.798Z,5.46
2023-03-06T08:28:46.148Z,5.44
2023-03-06T08:31:38.171Z,5.55
2023-03-06T08:34:09.714Z,5.51
2023-03-06T08:36:37.533Z,5.69
2023-03-06T08:39:05.903Z,5.69
2023-03-06T08:41:34.754Z,5.82
2023-03-06T08:44:02.399Z,5.98
2023-03-06T08:46:31.115Z,6.07
2023-03-06T08:48:59.110Z,6.05
2023-03-06T08:51:28.075Z,6.01
2023-03-06T08:53:57.345Z,6.29
2023-03-06T08:56:30.729Z,6.52
2023-03-06T08:59:00.493Z,6.79
2023-03-06T09:01:31.289Z,7.06
2023-03-06T09:04:01.875Z,7.28
2023-03-06T09:06:32.654Z,7.64
2023-03-06T09:09:00.510Z,7.87
2023-03-06T09:11:28.416Z,8.09
2023-03-06T09:13:57.167Z,8.16
2023-03-06T09:16:25.335Z,8.41
2023-03-06T09:18:54.085Z,8.40
2023-03-06T09:21:23.135Z,8.34
2023-03-06T09:23:51.340Z,8.46
2023-03-06T09:26:19.394Z,8.60
2023-03-06T09:28:47.215Z,8.58
2023-03-06T09:31:19.934Z,8.32
2023-03-06T09:33:48.696Z,8.01
2023-03-06T09:36:19.499Z,8.22
2023-03-06T09:38:48.379Z,8.29
2023-03-06T09:41:30.455Z,8.50
2023-03-06T09:44:28.995Z,8.45
2023-03-06T09:46:59.765Z,8.56
2023-03-06T09:49:46.272Z,8.57
2023-03-06T09:52:40.038Z,8.73
2023-03-06T09:55:30.013Z,9.00
2023-03-06T09:58:18.189Z,9.44
2023-03-06T10:01:07.183Z,9.81
2023-03-06T10:03:51.124Z,10.40
2023-03-06T10:06:26.536Z,10.93
2023-03-06T10:08:57.050Z,11.33
2023-03-06T10:12:18.361Z,11.67
2023-03-06T10:14:54.100Z,12.11
2023-03-06T10:17:23.917Z,12.37
2023-03-06T10:19:52.605Z,12.50
2023-03-06T10:22:30.853Z,12.65
2023-03-06T10:25:17.007Z,12.59
2023-03-06T10:27:47.827Z,12.57
2023-03-06T10:30:36.816Z,12.59
2023-03-06T10:33:29.075Z,13.06
2023-03-06T10:35:57.266Z,13.11
2023-03-06T10:38:37.822Z,12.83
2023-03-06T10:41:11.723Z,12.96
2023-03-06T10:43:42.175Z,12.97
2023-03-06T10:46:12.731Z,13.09
2023-03-06T10:48:42.417Z,12.87
2023-03-06T10:51:21.218Z,13.21
2023-03-06T10:53:58.099Z,13.11
2023-03-06T10:56:27.276Z,13.25
2023-03-06T10:59:12.965Z,13.21
2023-03-06T11:01:51.385Z,12.93
2023-03-06T11:04:33.470Z,13.22
2023-03-06T11:07:05.988Z,12.44
2023-03-06T11:09:33.781Z,12.10
2023-03-06T11:12:35.551Z,12.05
2023-03-06T11:15:15.249Z,11.91
2023-03-06T11:18:04.525Z,11.77
2023-03-06T11:20:48.404Z,11.53
2023-03-06T11:23:42.082Z,11.38
2023-03-06T11:26:27.793Z,11.09
2023-03-06T11:29:24.846Z,10.84
2023-03-06T11:31:56.992Z,10.73
2023-03-06T11:34:56.696Z,10.58
2023-03-06T11:37:32.969Z,10.42
2023-03-06T11:40:13.720Z,10.08
2023-03-06T11:42:49.813Z,9.55
2023-03-06T11:45:39.374Z,9.53
2023-03-06T11:48:17.556Z,9.27
2023-03-06T11:50:49.269Z,9.18
2023-03-06T11:53:20.006Z,9.07
2023-03-06T11:56:18.440Z,9.05
2023-03-06T11:59:03.549Z,8.42
2023-03-06T12:01:41.878Z,8.15
2023-03-06T12:04:24.823Z,8.19
2023-03-06T12:07:31.435Z,8.30
2023-03-06T12:10:08.371Z,8.52
2023-03-06T12:12:38.508Z,8.76
2023-03-06T12:15:21.095Z,8.90
2023-03-06T12:18:02.186Z,9.01
2023-03-06T12:20:48.623Z,9.04
2023-03-06T12:23:38.000Z,9.01
2023-03-06T12:26:43.390Z,9.30
2023-03-06T12:29:23.174Z,9.82
2023-03-06T12:32:08.568Z,9.79
2023-03-06T12:35:19.694Z,9.77
2023-03-06T12:38:02.541Z,9.75
2023-03-06T12:40:42.106Z,9.56
2023-03-06T12:43:34.537Z,9.50
2023-03-06T12:46:17.837Z,9.46
2023-03-06T12:49:01.899Z,9.40
2023-03-06T12:51:30.454Z,9.23
2023-03-06T12:54:00.785Z,9.16
2023-03-06T12:56:30.211Z,8.90
2023-03-06T12:59:02.531Z,8.86
2023-03-06T13:02:14.919Z,8.88
2023-03-06T13:05:00.272Z,8.75
2023-03-06T13:07:45.736Z,8.63
2023-03-06T13:10:16.530Z,8.58
2023-03-06T13:13:05.175Z,8.49
2023-03-06T13:15:42.980Z,8.51
2023-03-06T13:18:36.646Z,8.51
2023-03-06T13:21:04.943Z,8.46
2023-03-06T13:23:32.368Z,8.44
2023-03-06T13:26:04.809Z,8.52
2023-03-06T13:28:50.632Z,8.22
2023-03-06T13:31:36.406Z,8.24
2023-03-06T13:34:25.361Z,8.38
2023-03-06T13:36:52.910Z,8.46
2023-03-06T13:39:20.697Z,8.51
2023-03-06T13:41:57.278Z,8.58
2023-03-06T13:44:25.093Z,8.45
2023-03-06T13:47:20.616Z,8.45
2023-03-06T13:49:48.907Z,8.51
2023-03-06T13:52:29.377Z,8.56
2023-03-06T13:55:38.231Z,8.43
2023-03-06T13:58:27.878Z,8.28
2023-03-06T14:01:10.277Z,8.23
2023-03-06T14:04:27.344Z,8.26
2023-03-06T14:07:06.815Z,8.34
2023-03-06T14:09:46.821Z,8.54
2023-03-06T14:12:24.096Z,8.64
2023-03-06T14:14:57.838Z,8.76
2023-03-06T14:17:29.263Z,8.83
2023-03-06T14:20:01.492Z,8.84
2023-03-06T14:22:29.007Z,8.88
2023-03-06T14:25:14.365Z,8.92
2023-03-06T14:27:43.915Z,8.89
2023-03-06T14:30:15.437Z,8.91
2023-03-06T14:32:43.782Z,8.93
2023-03-06T14:35:23.277Z,8.84
2023-03-06T14:37:53.398Z,8.86
2023-03-06T14:40:27.961Z,8.86
2023-03-06T14:43:22.017Z,8.88
2023-03-06T14:45:55.593Z,8.93
2023-03-06T14:48:25.798Z,8.94
2023-03-06T14:50:57.248Z,8.94
2023-03-06T14:53:28.831Z,8.95
2023-03-06T14:56:00.487Z,8.97
2023-03-06T14:58:49.789Z,8.95
2023-03-06T15:01:26.059Z,8.64
2023-03-06T15:03:56.867Z,8.47
2023-03-06T15:06:29.814Z,8.32
2023-03-06T15:09:09.445Z,8.46
2023-03-06T15:11:57.909Z,8.50
2023-03-06T15:14:34.109Z,8.60
2023-03-06T15:17:25.060Z,8.64
2023-03-06T15:19:55.580Z,8.64
2023-03-06T15:22:50.502Z,8.47
2023-03-06T15:25:23.798Z,8.40
2023-03-06T15:27:57.645Z,8.37
2023-03-06T15:30:34.315Z,8.32
2023-03-06T15:33:19.565Z,8.25
2023-03-06T15:36:01.900Z,8.23
2023-03-06T15:38:41.991Z,8.29
2023-03-06T15:41:37.808Z,8.36
2023-03-06T15:44:14.471Z,8.44
2023-03-06T15:46:42.708Z,8.48
2023-03-06T15:49:14.938Z,8.49
2023-03-06T15:51:42.885Z,8.49
2023-03-06T15:56:43.886Z,8.51
2023-03-06T15:59:21.707Z,8.49
2023-03-06T16:01:50.583Z,8.50
2023-03-06T16:04:20.000Z,8.44
2023-03-06T16:06:48.486Z,8.46
2023-03-06T16:09:16.070Z,8.44
2023-03-06T16:11:44.996Z,8.37
2023-03-06T16:14:20.091Z,8.35
2023-03-06T16:16:48.491Z,8.34
2023-03-06T16:19:25.946Z,8.26
2023-03-06T16:21:56.470Z,8.27
2023-03-06T16:24:26.175Z,8.22
2023-03-06T16:26:55.074Z,8.19
2023-03-06T16:29:26.134Z,8.17
2023-03-06T16:31:56.443Z,8.00
2023-03-06T16:34:24.597Z,7.85
2023-03-06T16:36:52.183Z,7.68
2023-03-06T16:39:23.358Z,7.49
2023-03-06T16:41:51.720Z,7.42
2023-03-06T16:44:19.922Z,7.42
2023-03-06T16:46:50.052Z,7.42
2023-03-06T16:49:20.735Z,7.39
2023-03-06T16:51:48.991Z,7.20
2023-03-06T16:54:16.837Z,7.07
2023-03-06T16:56:45.197Z,7.08
2023-03-06T16:59:13.391Z,7.10
2023-03-06T17:01:44.912Z,7.07
2023-03-06T17:04:12.947Z,7.07
2023-03-06T17:06:41.916Z,7.06
2023-03-06T17:09:14.329Z,7.07
2023-03-06T17:11:44.961Z,6.99
2023-03-06T17:14:12.755Z,6.98
2023-03-06T17:16:40.454Z,6.99
2023-03-06T17:19:12.146Z,7.11
2023-03-06T17:21:39.677Z,7.15
2023-03-06T17:24:07.394Z,7.20
2023-03-06T17:26:37.125Z,7.21
2023-03-06T17:29:06.952Z,7.22
2023-03-06T17:31:35.023Z,7.20
2023-03-06T17:34:02.465Z,7.17
2023-03-06T17:36:31.858Z,7.21
2023-03-06T17:39:02.008Z,7.17
2023-03-06T17:41:30.001Z,7.14
2023-03-06T17:43:58.479Z,7.14
2023-03-06T17:46:26.490Z,7.16
2023-03-06T17:48:55.240Z,7.12
2023-03-06T17:51:23.011Z,7.12
2023-03-06T17:53:52.225Z,7.21
2023-03-06T17:56:19.847Z,7.20
2023-03-06T17:58:47.711Z,7.14
2023-03-06T18:01:19.237Z,7.10
2023-03-06T18:03:49.296Z,7.03
2023-03-06T18:06:18.510Z,7.04
2023-03-06T18:08:46.652Z,7.01
2023-03-06T18:11:14.965Z,7.02
2023-03-06T18:13:44.555Z,7.11
2023-03-06T18:16:14.317Z,7.03
2023-03-06T18:18:42.301Z,7.08
2023-03-06T18:21:12.469Z,7.07
2023-03-06T18:23:40.971Z,7.06
2023-03-06T18:26:14.295Z,7.02
2023-03-06T18:28:44.692Z,7.07
2023-03-06T18:31:15.620Z,7.05
2023-03-06T18:33:43.112Z,7.11
2023-03-06T18:36:11.100Z,7.13
2023-03-06T18:38:40.232Z,7.11
2023-03-06T18:41:09.094Z,7.13
2023-03-06T18:43:37.235Z,7.02
2023-03-06T18:46:05.912Z,6.92
2023-03-06T18:48:33.641Z,6.86
2023-03-06T18:51:06.516Z,6.77
2023-03-06T18:53:35.682Z,6.90
2023-03-06T18:56:04.037Z,6.94
2023-03-06T18:58:31.637Z,7.00
2023-03-06T19:01:02.259Z,7.02
2023-03-06T19:03:29.851Z,7.03
2023-03-06T19:05:59.163Z,7.06
2023-03-06T19:08:27.007Z,7.00
2023-03-06T19:10:54.479Z,7.05
2023-03-06T19:13:22.008Z,7.05
2023-03-06T19:15:50.009Z,7.10
2023-03-06T19:18:18.205Z,7.06
2023-03-06T19:20:45.708Z,7.05
2023-03-06T19:23:14.128Z,7.02
2023-03-06T19:25:41.790Z,6.94
2023-03-06T19:28:09.324Z,6.95
2023-03-06T19:30:40.481Z,6.98
2023-03-06T19:33:07.935Z,6.91
2023-03-06T19:35:35.886Z,6.94
2023-03-06T19:38:03.804Z,6.90
2023-03-06T19:40:31.295Z,6.92
2023-03-06T19:42:58.836Z,6.90
2023-03-06T19:45:26.625Z,7.09
2023-03-06T19:47:56.145Z,9.32
2023-03-06T19:50:28.479Z,10.89
2023-03-06T19:52:57.422Z,12.25
2023-03-06T19:55:26.425Z,12.04
2023-03-06T19:57:54.413Z,10.77
2023-03-06T20:00:22.458Z,9.92
2023-03-06T20:02:50.690Z,9.29
2023-03-06T20:05:18.277Z,8.89
2023-03-06T20:07:45.780Z,8.55
2023-03-06T20:10:13.614Z,8.20
2023-03-06T20:12:41.203Z,7.88
2023-03-06T20:15:09.307Z,7.67
2023-03-06T20:17:40.446Z,7.41
2023-03-06T20:20:09.923Z,7.41
2023-03-06T20:22:37.705Z,7.35
2023-03-06T20:25:05.884Z,7.30
2023-03-06T20:27:33.914Z,7.21
2023-03-06T20:30:01.920Z,7.14
2023-03-06T20:32:29.513Z,7.09
2023-03-06T20:34:57.045Z,6.99
2023-03-06T20:37:24.911Z,7.00
2023-03-06T20:39:52.766Z,6.95
2023-03-06T20:42:20.365Z,6.90
2023-03-06T20:44:48.161Z,6.87
2023-03-06T20:47:15.702Z,6.82
2023-03-06T20:49:43.173Z,6.78
2023-03-06T20:52:11.159Z,6.73
2023-03-06T20:54:38.871Z,6.66
2023-03-06T20:57:06.448Z,6.37
2023-03-06T20:59:34.326Z,6.26
2023-03-06T21:02:02.007Z,6.21
2023-03-06T21:04:29.774Z,6.12
2023-03-06T21:06:57.617Z,6.06
2023-03-06T21:09:25.131Z,5.93
2023-03-06T21:11:52.665Z,5.97
2023-03-06T21:14:20.490Z,5.92
2023-03-06T21:16:48.106Z,5.87
2023-03-06T21:19:15.687Z,5.90
2023-03-06T21:21:43.553Z,5.87
2023-03-06T21:24:11.268Z,5.78
2023-03-06T21:26:38.802Z,5.83
2023-03-06T21:29:06.857Z,5.79
2023-03-06T21:31:34.563Z,5.77
2023-03-06T21:34:04.903Z,5.78
2023-03-06T21:36:33.831Z,5.77
2023-03-06T21:39:01.459Z,5.79
2023-03-06T21:41:30.642Z,5.85
2023-03-06T21:44:03.800Z,5.77
2023-03-06T21:46:32.253Z,5.77
2023-03-06T21:49:02.792Z,5.79
2023-03-06T21:51:30.268Z,5.74
2023-03-06T21:53:59.045Z,5.79
2023-03-06T21:56:28.509Z,5.87
2023-03-06T21:58:58.067Z,5.87
2023-03-06T22:01:28.434Z,5.87
2023-03-06T22:03:57.514Z,5.92
2023-03-06T22:06:26.821Z,5.78
2023-03-06T22:08:56.125Z,5.75
2023-03-06T22:11:25.668Z,5.80
2023-03-06T22:13:53.549Z,5.81
2023-03-06T22:16:21.267Z,5.73
2023-03-06T22:18:50.780Z,5.77
2023-03-06T22:21:20.782Z,5.83
2023-03-06T22:23:57.628Z,5.89
2023-03-06T22:26:29.490Z,5.87
2023-03-06T22:28:57.055Z,5.98
2023-03-06T22:31:28.432Z,5.93
2023-03-06T22:33:58.613Z,5.91
2023-03-06T22:36:27.859Z,5.86
2023-03-06T22:38:58.283Z,5.85
2023-03-06T22:41:27.108Z,5.85
2023-03-06T22:43:58.957Z,5.84
2023-03-06T22:46:27.036Z,5.75
2023-03-06T22:49:00.722Z,5.82
2023-03-06T22:51:29.646Z,5.74
2023-03-06T22:53:57.622Z,5.66
2023-03-06T22:56:25.479Z,5.63
2023-03-06T22:58:53.443Z,5.69
2023-03-06T23:01:23.427Z,5.76
2023-03-06T23:03:53.374Z,5.79
2023-03-06T23:06:25.541Z,5.87
2023-03-06T23:08:57.382Z,5.93
2023-03-06T23:11:27.855Z,5.94
2023-03-06T23:14:14.828Z,6.00
2023-03-06T23:17:00.665Z,5.90
2023-03-06T23:19:49.720Z,5.81
2023-03-06T23:22:36.220Z,5.76
2023-03-06T23:25:22.368Z,5.76
2023-03-06T23:27:50.191Z,5.77
2023-03-06T23:30:17.808Z,5.84
2023-03-06T23:32:46.118Z,5.85
2023-03-06T23:35:14.499Z,5.94
2023-03-06T23:37:42.156Z,5.99
2023-03-06T23:40:10.839Z,6.05
2023-03-06T23:42:38.637Z,6.08
2023-03-06T23:45:07.375Z,6.10
2023-03-06T23:47:35.089Z,6.10
2023-03-06T23:50:03.142Z,6.07
2023-03-06T23:52:30.639Z,6.04
2023-03-06T23:54:58.105Z,6.01
2023-03-06T23:57:25.882Z,6.02
2023-03-06T23:59:53.539Z,5.93
